Flight Track Log - Related Links

Times and Time Zones

All times are in EDT time to prevent confusion due to time zone crossing. See the SWA561 flight status page for this flight to view local times or setup timezone preferences in your user account.

Time Position Orientation Groundspeed Altitude Reporting Facility
EDT Latitude Longitude Course Direction KTS MPH feet Rate Location/Type
Sun 08:12:41 PM 37.7167 -122.2500 310° West 140 161 1,500  Level Northern Cal TRACON
Sun 08:13:41 PM 37.7500 -122.3000 310° West 199 229 4,500 2,769 Climbing Northern Cal TRACON
Sun 08:14:12 PM 37.7442 -122.3217 251° West 204 235 5,700 3,130 Climbing Oakland Center
Sun 08:15:13 PM 37.7250 -122.3922 251° West 220 253 9,300 3,506 Climbing Oakland Center
Sun 08:15:41 PM 37.6667 -122.4000 186° South 331 381 10,900 3,148 Climbing Northern Cal TRACON
Sun 08:16:14 PM 37.6183 -122.3767 159° South 343 395 12,500 3,158 Climbing Oakland Center
Sun 08:17:16 PM 37.5236 -122.3125 152° Southeast 385 443 15,900 3,024 Climbing Oakland Center
Sun 08:18:17 PM 37.4367 -122.2139 138° Southeast 422 486 18,700 2,852 Climbing Oakland Center
Sun 08:19:18 PM 37.3514 -122.1017 134° Southeast 442 509 21,700 2,829 Climbing Oakland Center
Sun 08:20:20 PM 37.2625 -121.9878 134° Southeast 455 524 24,500 2,488 Climbing Oakland Center
Sun 08:21:21 PM 37.1725 -121.8722 134° Southeast 464 534 26,800 2,066 Climbing Oakland Center
Sun 08:22:22 PM 37.0789 -121.7533 135° Southeast 476 548 28,700 1,770 Climbing Oakland Center
Sun 08:23:23 PM 36.9814 -121.6314 135° Southeast 492 566 30,400 1,610 Climbing Oakland Center
Sun 08:24:25 PM 36.8819 -121.5058 135° Southeast 508 585 32,000 2,000 Climbing Oakland Center
Sun 08:25:26 PM 36.7711 -121.3642 134° Southeast 510 587 34,500 2,164 Climbing Oakland Center
Sun 08:26:27 PM 36.6744 -121.2431 135° Southeast 496 571 36,400 1,574 Climbing Oakland Center
Sun 08:27:28 PM 36.5775 -121.1236 135° Southeast 491 565 37,700 1,230 Climbing Oakland Center
Sun 08:28:29 PM 36.4803 -121.0022 135° Southeast 493 567 38,900 634 Climbing Oakland Center
Sun 08:29:31 PM 36.3828 -120.8803 135° Southeast 497 572 39,000 49 Climbing Oakland Center
Sun 08:30:32 PM 36.2858 -120.7583 135° Southeast 497 572 39,000  Level Oakland Center
Sun 08:31:33 PM 36.1872 -120.6386 136° Southeast 495 570 39,000  Level Oakland Center
Sun 08:32:34 PM 36.0706 -120.4942 135° Southeast 493 567 39,000  Level Oakland Center
Sun 08:33:35 PM 35.9736 -120.3758 135° Southeast 488 562 39,000  Level Oakland Center
Sun 08:34:37 PM 35.8775 -120.2583 135° Southeast 486 559 39,000  Level Oakland Center
Sun 08:35:38 PM 35.7814 -120.1417 135° Southeast 481 554 39,000  Level Oakland Center
Sun 08:36:39 PM 35.6842 -120.0231 135° Southeast 486 559 39,000  Level Oakland Center
Sun 08:37:40 PM 35.5792 -119.9181 141° Southeast 482 555 39,000  Level Oakland Center
Sun 08:38:41 PM 35.4675 -119.8231 145° Southeast 481 554 39,000  Level Oakland Center
Sun 08:39:42 PM 35.3575 -119.7275 145° Southeast 482 555 39,000 -1,024 Level Oakland Center
Sun 08:40:44 PM 35.2481 -119.6339 145° Southeast 478 550 36,900 -2,439 Descending Oakland Center
Sun 08:41:45 PM 35.1392 -119.5411 145° Southeast 476 548 34,000 -2,852 Descending Oakland Center
Sun 08:42:46 PM 35.0306 -119.4478 145° Southeast 476 548 31,100 -2,607 Descending Oakland Center
Sun 08:43:47 PM 34.9231 -119.3572 145° Southeast 473 544 28,700 -2,262 Descending Oakland Center
Sun 08:44:48 PM 34.8178 -119.2683 145° Southeast 464 534 26,500 -2,164 Descending Oakland Center
Sun 08:45:49 PM 34.7186 -119.1844 145° Southeast 445 512 24,300 -2,416 Descending Oakland Center
Sun 08:46:05 PM 34.6789 -119.1514 146° Southeast 436 502 23,400 -2,231 Descending Los Angeles Center
Sun 08:47:07 PM 34.5878 -119.0756 146° Southeast 430 495 21,400 -1,984 Descending Los Angeles Center
Sun 08:48:09 PM 34.4947 -118.9978 145° Southeast 405 466 19,300 -2,274 Descending Los Angeles Center
Sun 08:49:11 PM 34.3856 -118.9053 145° Southeast 394 453 16,700 -2,371 Descending Los Angeles Center
Sun 08:50:13 PM 34.2797 -118.8531 158° South 413 475 14,400 -2,226 Descending Los Angeles Center
Sun 08:51:15 PM 34.1733 -118.8128 163° South 402 463 12,100 -1,694 Descending Los Angeles Center
Sun 08:52:17 PM 34.0672 -118.7722 162° South 376 433 10,900 -1,065 Descending Los Angeles Center
Sun 08:53:19 PM 34.0297 -118.6664 113° Southeast 331 381 9,900 -1,161 Descending Los Angeles Center
Sun 08:54:21 PM 34.0197 -118.5625 97° East 313 360 8,500 -1,016 Descending Los Angeles Center
Sun 08:55:23 PM 34.0108 -118.4650 96° East 292 336 7,800 -1,210 Descending Los Angeles Center
Sun 08:56:25 PM 34.0183 -118.3778 84° East 250 288 6,000 -1,790 Descending Los Angeles Center
Sun 08:57:27 PM 34.0289 -118.2914 82° East 257 296 4,100 -1,694 Descending Los Angeles Center
Sun 08:58:29 PM 34.0122 -118.2258 107° East 243 280 2,500 -912 Descending Los Angeles Center
Sun 08:59:32 PM 33.9722 -118.2578 214° Southwest 209 241 2,200 -480 Descending Los Angeles Center
Sun 09:00:34 PM 33.9608 -118.3142 256° West 188 216 1,500 -726 Descending Los Angeles Center
Sun 09:01:36 PM 33.9569 -118.3683 265° West 152 175 700 -677 Descending Los Angeles Center
Sun 09:02:38 PM 33.9519 -118.4144 263° West 138 159 100 -581 Descending Los Angeles Center
Sun 09:04:00 PM 33.9425 -118.4081 228° Southwest  Level Estimated
Sun 09:11:00 PM 33.9425 -118.4081 228° Southwest  Level Estimated

Login

Don't have an account? Register now (free) for customized features, flight alerts, and more!